Time;durP1;ratioP1;P1;durP2;ratioP2;P2;SDS_P1;SDS_P2;PMS_P1;PMS_P2;Temp;Humidity;BMP_temperature;BMP_pressure;BME280_temperature;BME280_humidity;BME280_pressure;Samples;Min_cycle;Max_cycle;Signal;HPM_P1;HPM_P2
2022/06/05 00:01:23;;;;;;;;;;;;;;;16.62;66.11;99534.27;1723356;82;20416;-50
2022/06/05 00:03:58;;;;;;;;;;;;;;;16.43;67.64;99534.34;1722786;82;20168;-49
2022/06/05 00:06:53;;;;;;;;;;;;;;;16.43;66.95;99538.81;1720923;83;20130;-51
2022/06/05 00:09:43;;;;;;;;;;;;;;;16.42;67.88;99541.92;1720345;82;20132;-51
2022/06/05 00:12:18;;;;;;;;;;;;;;;16.34;68.47;99536.37;1721995;82;20136;-47
2022/06/05 00:14:44;;;;;;;;;;;;;;;16.22;69.11;99535.46;1723351;82;20440;-47
2022/06/05 00:17:13;;;;;;;;;;;;;;;16.24;67.84;99534.86;1719844;82;20168;-52
2022/06/05 00:19:41;;;;;;;;;;;;;;;16.24;68.38;99534.03;1723046;82;20156;-51
2022/06/05 00:22:07;;;;;;;;;;;;;;;16.15;69.50;99532.06;1722196;82;20132;-50
2022/06/05 00:24:33;;;;;;;;;;;;;;;16.22;68.23;99530.64;1719359;82;20140;-44
2022/06/05 00:27:06;;;;;;;;;;;;;;;16.24;68.28;99530.88;1724022;82;20148;-55
2022/06/05 00:29:44;;;;;;;;;;;;;;;16.27;68.05;99536.45;1719384;82;20128;-50
2022/06/05 00:32:13;;;;;;;;;;;;;;;16.29;68.12;99535.86;1721272;82;20160;-47
2022/06/05 00:34:39;;;;;;;;;;;;;;;16.28;67.12;99542.11;1713825;82;20140;-48
2022/06/05 00:37:20;;;;;;;;;;;;;;;16.32;66.00;99535.64;1724300;82;20131;-45
2022/06/05 00:40:04;;;;;;;;;;;;;;;16.27;66.89;99540.44;1722821;82;20580;-46
2022/06/05 00:42:32;;;;;;;;;;;;;;;16.21;68.23;99547.52;1722620;81;20428;-51
2022/06/05 00:45:00;;;;;;;;;;;;;;;16.23;67.96;99542.48;1720639;82;20424;-46
2022/06/05 00:47:28;;;;;;;;;;;;;;;16.29;66.86;99545.14;1719502;82;20139;-47
2022/06/05 00:50:07;;;;;;;;;;;;;;;16.17;68.84;99541.62;1694542;83;20729;-44
2022/06/05 00:52:35;;;;;;;;;;;;;;;16.25;67.84;99543.20;1721842;82;20176;-48
2022/06/05 00:55:00;;;;;;;;;;;;;;;16.18;68.87;99543.78;1721141;83;20135;-47
2022/06/05 00:57:28;;;;;;;;;;;;;;;16.13;68.90;99552.07;1721582;83;20172;-47
2022/06/05 00:59:54;;;;;;;;;;;;;;;16.17;68.21;99554.02;1722484;82;20139;-46
2022/06/05 01:02:20;;;;;;;;;;;;;;;16.08;68.20;99547.12;1721541;82;20132;-53
2022/06/05 01:04:48;;;;;;;;;;;;;;;16.08;68.87;99553.75;1722037;82;20152;-51
2022/06/05 01:07:15;;;;;;;;;;;;;;;16.08;69.20;99555.08;1723032;82;20131;-45
2022/06/05 01:09:42;;;;;;;;;;;;;;;16.14;67.54;99566.20;1721960;82;20662;-45
2022/06/05 01:12:32;;;;;;;;;;;;;;;16.09;67.59;99567.37;1721774;83;20484;-48
2022/06/05 01:15:18;;;;;;;;;;;;;;;15.98;69.32;99571.78;1719091;83;20493;-47
2022/06/05 01:17:48;;;;;;;;;;;;;;;16.02;67.89;99563.96;1722996;82;20125;-49
2022/06/05 01:20:17;;;;;;;;;;;;;;;15.97;68.54;99559.47;1724096;82;20164;-54
2022/06/05 01:22:58;;;;;;;;;;;;;;;15.93;69.16;99562.83;1720368;82;20140;-46
2022/06/05 01:26:01;;;;;;;;;;;;;;;15.90;69.09;99560.42;1717275;83;20140;-56
2022/06/05 01:28:29;;;;;;;;;;;;;;;15.84;68.98;99561.69;1720185;82;20179;-53
2022/06/05 01:30:59;;;;;;;;;;;;;;;15.85;68.94;99563.39;1723150;82;20159;-50
2022/06/05 01:33:27;;;;;;;;;;;;;;;15.76;71.46;99563.23;1717542;82;20124;-50
2022/06/05 01:36:05;;;;;;;;;;;;;;;15.77;69.77;99563.58;1720107;82;20168;-47
2022/06/05 01:38:46;;;;;;;;;;;;;;;15.63;70.57;99571.19;1703936;83;20536;-47
2022/06/05 01:41:14;;;;;;;;;;;;;;;15.62;70.31;99580.92;1683593;82;20144;-46
2022/06/05 01:43:43;;;;;;;;;;;;;;;15.42;72.37;99581.50;1721221;82;20128;-51
2022/06/05 01:46:25;;;;;;;;;;;;;;;15.44;72.53;99578.27;1720370;82;20144;-50
2022/06/05 01:49:00;;;;;;;;;;;;;;;15.45;71.13;99580.81;1721936;82;20140;-46
2022/06/05 01:51:32;;;;;;;;;;;;;;;15.42;70.49;99578.86;1720753;82;20132;-51
2022/06/05 01:54:00;;;;;;;;;;;;;;;15.41;71.17;99576.69;1717933;82;20141;-55
2022/06/05 01:56:36;;;;;;;;;;;;;;;15.36;71.69;99578.81;1722127;83;20164;-51
2022/06/05 01:59:25;;;;;;;;;;;;;;;15.27;73.77;99584.27;1721824;82;20136;-53
2022/06/05 02:01:54;;;;;;;;;;;;;;;15.26;73.85;99587.90;1722634;82;20461;-52
2022/06/05 02:04:37;;;;;;;;;;;;;;;15.21;74.29;99584.72;1721292;82;20164;-44
2022/06/05 02:07:10;;;;;;;;;;;;;;;15.25;71.76;99583.54;1720883;82;20441;-49
2022/06/05 02:09:45;;;;;;;;;;;;;;;15.28;72.06;99589.95;1696337;82;20191;-44
2022/06/05 02:12:11;;;;;;;;;;;;;;;15.23;73.35;99592.56;1721396;82;20140;-53
2022/06/05 02:14:37;;;;;;;;;;;;;;;15.24;72.56;99600.38;1720837;83;20132;-51
2022/06/05 02:17:04;;;;;;;;;;;;;;;15.27;70.36;99605.95;1722475;83;20139;-46
2022/06/05 02:19:30;;;;;;;;;;;;;;;15.17;72.56;99609.70;1722269;82;20144;-51
2022/06/05 02:21:59;;;;;;;;;;;;;;;15.16;72.59;99608.02;1721823;82;20422;-55
2022/06/05 02:24:26;;;;;;;;;;;;;;;15.07;72.84;99610.83;1721676;83;20157;-52
2022/06/05 02:26:51;;;;;;;;;;;;;;;15.04;73.51;99615.48;1720124;83;20426;-50
2022/06/05 02:29:19;;;;;;;;;;;;;;;15.05;73.20;99615.88;1722928;83;20140;-50
2022/06/05 02:32:19;;;;;;;;;;;;;;;15.10;73.53;99607.14;1720911;82;20163;-45
2022/06/05 02:34:54;;;;;;;;;;;;;;;15.11;73.88;99609.66;1720878;82;20133;-43
2022/06/05 02:37:42;;;;;;;;;;;;;;;15.10;74.26;99605.81;1722710;82;20144;-52
2022/06/05 02:43:07;;;;;;;;;;;;;;;15.04;74.05;99608.38;1711026;80;20176;-53
2022/06/05 02:45:53;;;;;;;;;;;;;;;14.97;73.78;99606.65;1718676;83;20145;-50
2022/06/05 02:48:38;;;;;;;;;;;;;;;14.96;73.81;99610.23;1722293;82;20160;-49
2022/06/05 02:51:08;;;;;;;;;;;;;;;14.91;74.34;99613.67;1716825;82;20494;-44
2022/06/05 02:53:49;;;;;;;;;;;;;;;14.97;73.60;99619.02;1716989;83;20100;-52
2022/06/05 02:56:15;;;;;;;;;;;;;;;14.96;73.19;99622.64;1688767;83;20105;-46
2022/06/05 02:58:41;;;;;;;;;;;;;;;14.71;74.94;99615.50;1720938;83;20117;-51
2022/06/05 03:03:50;;;;;;;;;;;;;;;14.74;74.49;99619.28;1718391;82;20146;-47
2022/06/05 03:06:16;;;;;;;;;;;;;;;14.64;74.87;99612.89;1717026;83;20168;-46
2022/06/05 03:08:41;;;;;;;;;;;;;;;14.63;75.39;99612.54;1721185;83;20141;-49
2022/06/05 03:11:07;;;;;;;;;;;;;;;14.66;74.85;99614.95;1722393;82;20413;-47
2022/06/05 03:13:33;;;;;;;;;;;;;;;14.50;75.89;99613.32;1719801;83;20136;-46
2022/06/05 03:15:59;;;;;;;;;;;;;;;14.57;75.03;99612.41;1726387;83;20202;-49
2022/06/05 03:18:25;;;;;;;;;;;;;;;14.61;75.27;99613.96;1722624;83;20191;-44
2022/06/05 03:20:56;;;;;;;;;;;;;;;14.60;75.40;99617.55;1722682;83;20402;-49
2022/06/05 03:23:22;;;;;;;;;;;;;;;14.52;75.62;99621.16;1720784;83;20104;-53
2022/06/05 03:25:47;;;;;;;;;;;;;;;14.56;75.35;99622.16;1725123;83;20105;-47
2022/06/05 03:28:13;;;;;;;;;;;;;;;14.56;75.06;99612.06;1720156;82;20109;-49
2022/06/05 03:30:41;;;;;;;;;;;;;;;14.44;75.76;99620.32;1717293;82;20109;-49
2022/06/05 03:33:07;;;;;;;;;;;;;;;14.44;75.77;99618.16;1715438;83;20144;-51
2022/06/05 03:35:35;;;;;;;;;;;;;;;14.45;75.85;99626.48;1721381;83;20111;-49
2022/06/05 03:38:01;;;;;;;;;;;;;;;14.47;75.46;99623.26;1713721;83;20145;-53
2022/06/05 03:40:26;;;;;;;;;;;;;;;14.51;75.05;99626.06;1722047;83;20134;-49
2022/06/05 03:42:52;;;;;;;;;;;;;;;14.44;75.12;99628.74;1720581;82;20129;-54
2022/06/05 03:45:17;;;;;;;;;;;;;;;14.42;75.46;99626.19;1719805;82;20134;-53
2022/06/05 03:47:44;;;;;;;;;;;;;;;14.47;75.37;99628.06;1716925;82;20113;-50
2022/06/05 03:50:11;;;;;;;;;;;;;;;14.51;75.29;99628.71;1720143;83;20405;-50
2022/06/05 03:52:37;;;;;;;;;;;;;;;14.52;75.26;99631.75;1718336;82;20504;-51
2022/06/05 03:55:03;;;;;;;;;;;;;;;14.57;75.06;99634.91;1719625;81;20105;-54
2022/06/05 03:57:29;;;;;;;;;;;;;;;14.61;74.85;99629.84;1719686;82;20188;-51
2022/06/05 03:59:55;;;;;;;;;;;;;;;14.59;74.96;99631.27;1719831;82;20132;-45
2022/06/05 04:02:20;;;;;;;;;;;;;;;14.59;74.23;99623.33;1721151;83;20133;-51
2022/06/05 04:04:46;;;;;;;;;;;;;;;14.61;73.61;99625.88;1713350;83;20108;-47
2022/06/05 04:07:11;;;;;;;;;;;;;;;14.66;73.30;99618.48;1715868;82;20097;-50
2022/06/05 04:09:37;;;;;;;;;;;;;;;14.65;73.38;99618.58;1715757;83;20124;-52
2022/06/05 04:12:03;;;;;;;;;;;;;;;14.64;72.21;99617.70;1719477;82;20406;-51
2022/06/05 04:14:29;;;;;;;;;;;;;;;14.58;73.74;99612.34;1717945;83;20107;-51
2022/06/05 04:16:54;;;;;;;;;;;;;;;14.65;73.05;99611.95;1717936;83;20117;-46
2022/06/05 04:19:20;;;;;;;;;;;;;;;14.72;73.06;99607.95;1718943;83;20113;-46
2022/06/05 04:21:47;;;;;;;;;;;;;;;14.75;73.38;99610.36;1719508;82;20147;-55
2022/06/05 04:24:13;;;;;;;;;;;;;;;14.83;72.56;99612.03;1717869;82;20158;-44
2022/06/05 04:26:40;;;;;;;;;;;;;;;14.89;72.94;99619.55;1721992;83;20165;-48
2022/06/05 04:29:06;;;;;;;;;;;;;;;14.93;72.73;99622.84;1720839;83;20157;-52
2022/06/05 04:31:37;;;;;;;;;;;;;;;14.96;72.33;99633.23;1722175;83;20422;-53
2022/06/05 04:34:05;;;;;;;;;;;;;;;14.86;72.77;99625.08;1721645;83;20407;-47
2022/06/05 04:36:32;;;;;;;;;;;;;;;14.90;72.31;99624.39;1721592;83;20141;-41
2022/06/05 04:38:58;;;;;;;;;;;;;;;14.90;73.66;99627.04;1722490;83;20122;-55
2022/06/05 04:41:25;;;;;;;;;;;;;;;14.98;71.40;99636.13;1720322;83;20413;-46
2022/06/05 04:43:51;;;;;;;;;;;;;;;14.97;72.86;99633.13;1719992;83;20528;-50
2022/06/05 04:46:17;;;;;;;;;;;;;;;15.05;72.67;99627.79;1720454;83;20168;-53
2022/06/05 04:48:43;;;;;;;;;;;;;;;15.10;71.01;99624.36;1722391;82;20096;-49
2022/06/05 04:51:12;;;;;;;;;;;;;;;15.11;71.55;99627.36;1724166;83;20109;-52
2022/06/05 04:53:38;;;;;;;;;;;;;;;15.15;70.79;99632.80;1722537;82;20105;-50
2022/06/05 04:56:06;;;;;;;;;;;;;;;15.11;71.70;99626.03;1720736;83;20425;-48
2022/06/05 04:58:32;;;;;;;;;;;;;;;15.15;71.17;99630.16;1721292;82;20117;-55
2022/06/05 05:00:58;;;;;;;;;;;;;;;15.19;71.55;99632.12;1719598;82;20097;-44
2022/06/05 05:03:23;;;;;;;;;;;;;;;15.21;72.24;99631.53;1715660;82;20446;-54
2022/06/05 05:05:49;;;;;;;;;;;;;;;15.23;71.36;99635.79;1716598;83;20115;-44
2022/06/05 05:08:15;;;;;;;;;;;;;;;15.26;71.70;99646.64;1713453;83;20115;-50
2022/06/05 05:10:41;;;;;;;;;;;;;;;15.25;72.02;99643.64;1715015;83;20448;-54
2022/06/05 05:13:07;;;;;;;;;;;;;;;15.36;71.15;99649.03;1713978;83;20112;-50
2022/06/05 05:15:32;;;;;;;;;;;;;;;15.42;71.42;99646.43;1720799;83;20130;-45
2022/06/05 05:17:58;;;;;;;;;;;;;;;15.47;71.31;99645.15;1716004;83;20410;-55
2022/06/05 05:20:25;;;;;;;;;;;;;;;15.51;70.56;99649.27;1719936;83;20101;-54
2022/06/05 05:22:51;;;;;;;;;;;;;;;15.46;70.95;99649.23;1719134;82;20118;-53
2022/06/05 05:25:16;;;;;;;;;;;;;;;15.57;70.53;99649.80;1722099;82;20116;-47
2022/06/05 05:27:42;;;;;;;;;;;;;;;15.60;70.69;99652.25;1721965;82;20105;-49
2022/06/05 05:30:10;;;;;;;;;;;;;;;15.67;70.10;99647.72;1719810;83;20113;-45
2022/06/05 05:32:36;;;;;;;;;;;;;;;15.73;70.28;99650.41;1718395;83;20128;-46
2022/06/05 05:35:02;;;;;;;;;;;;;;;15.79;70.35;99651.36;1726499;83;20204;-47
2022/06/05 05:37:27;;;;;;;;;;;;;;;15.81;69.95;99652.09;1719288;83;20112;-48
2022/06/05 05:42:37;;;;;;;;;;;;;;;15.85;69.82;99650.91;1722531;83;20125;-44
2022/06/05 05:45:05;;;;;;;;;;;;;;;15.88;69.30;99647.17;1718495;82;20117;-53
2022/06/05 05:47:32;;;;;;;;;;;;;;;15.83;69.82;99654.15;1718163;82;20140;-48
2022/06/05 05:50:07;;;;;;;;;;;;;;;15.83;69.52;99658.61;1720104;83;20108;-51
2022/06/05 05:52:33;;;;;;;;;;;;;;;15.83;69.67;99651.50;1715446;83;20099;-55
2022/06/05 05:54:59;;;;;;;;;;;;;;;15.88;68.63;99657.33;1717174;83;20117;-50
2022/06/05 05:57:25;;;;;;;;;;;;;;;15.85;69.47;99648.74;1718160;83;20131;-50
2022/06/05 05:59:51;;;;;;;;;;;;;;;15.90;69.08;99655.89;1719767;82;20113;-56
2022/06/05 06:02:21;;;;;;;;;;;;;;;15.96;69.85;99655.44;1723203;83;20109;-50
2022/06/05 06:04:46;;;;;;;;;;;;;;;16.03;69.40;99654.53;1722482;83;20471;-44
2022/06/05 06:07:12;;;;;;;;;;;;;;;16.08;69.34;99654.56;1718859;83;20149;-51
2022/06/05 06:09:39;;;;;;;;;;;;;;;16.16;69.29;99655.81;1724564;82;20109;-51
2022/06/05 06:12:05;;;;;;;;;;;;;;;16.22;69.03;99656.69;1724035;82;20108;-47
2022/06/05 06:14:31;;;;;;;;;;;;;;;16.26;68.59;99654.16;1722520;83;20420;-58
2022/06/05 06:16:56;;;;;;;;;;;;;;;16.31;68.44;99646.23;1721871;83;20105;-47
2022/06/05 06:19:22;;;;;;;;;;;;;;;16.37;68.25;99649.40;1724756;83;20141;-50
2022/06/05 06:21:47;;;;;;;;;;;;;;;16.43;68.01;99643.17;1718818;83;20117;-43
2022/06/05 06:24:13;;;;;;;;;;;;;;;16.48;67.90;99643.68;1723229;83;20191;-51
2022/06/05 06:26:40;;;;;;;;;;;;;;;16.53;68.36;99640.67;1721715;83;20188;-52
2022/06/05 06:29:06;;;;;;;;;;;;;;;16.57;66.68;99646.14;1723711;83;20104;-47
2022/06/05 06:31:32;;;;;;;;;;;;;;;16.60;66.83;99643.72;1724759;83;20112;-45
2022/06/05 06:33:57;;;;;;;;;;;;;;;16.65;67.10;99643.73;1723024;83;20116;-47
2022/06/05 06:36:23;;;;;;;;;;;;;;;16.72;66.73;99644.59;1722693;83;20416;-51
2022/06/05 06:38:49;;;;;;;;;;;;;;;16.77;66.41;99641.11;1723444;83;20203;-56
2022/06/05 06:41:17;;;;;;;;;;;;;;;16.81;65.24;99642.11;1723736;83;20202;-50
2022/06/05 06:43:44;;;;;;;;;;;;;;;16.86;65.72;99639.98;1724529;83;20104;-48
2022/06/05 06:46:10;;;;;;;;;;;;;;;16.92;65.59;99641.33;1721832;83;20133;-52
2022/06/05 06:48:36;;;;;;;;;;;;;;;17.00;65.87;99638.08;1724135;83;20108;-55
2022/06/05 06:51:03;;;;;;;;;;;;;;;17.09;65.41;99640.03;1722209;83;20137;-47
2022/06/05 06:53:31;;;;;;;;;;;;;;;17.15;65.15;99641.36;1723814;82;20255;-49
2022/06/05 06:55:57;;;;;;;;;;;;;;;17.25;65.21;99648.52;1722782;83;20152;-53
2022/06/05 06:58:23;;;;;;;;;;;;;;;17.35;64.02;99649.13;1722102;83;20136;-50
2022/06/05 07:00:49;;;;;;;;;;;;;;;17.39;63.71;99646.58;1723042;83;20113;-55
2022/06/05 07:03:14;;;;;;;;;;;;;;;17.46;62.24;99644.67;1722303;83;20100;-53
2022/06/05 07:05:40;;;;;;;;;;;;;;;17.47;61.57;99642.86;1718530;83;20446;-51
2022/06/05 07:08:08;;;;;;;;;;;;;;;17.56;62.47;99651.44;1724046;82;20431;-57
2022/06/05 07:10:35;;;;;;;;;;;;;;;17.63;62.76;99643.34;1721686;83;20167;-52
2022/06/05 07:13:01;;;;;;;;;;;;;;;17.72;62.62;99651.54;1724639;83;20179;-51
2022/06/05 07:15:33;;;;;;;;;;;;;;;17.77;61.71;99650.70;1723298;83;20520;-52
2022/06/05 07:17:55;;;;;;;;;;;;;;;17.77;60.39;99650.70;1721899;83;20219;-47
2022/06/05 07:20:21;;;;;;;;;;;;;;;17.85;61.53;99653.64;1723373;82;20100;-49
2022/06/05 07:22:47;;;;;;;;;;;;;;;17.89;60.41;99648.92;1721817;83;20116;-54
2022/06/05 07:25:12;;;;;;;;;;;;;;;17.92;60.53;99648.19;1721783;83;20113;-49
2022/06/05 07:27:38;;;;;;;;;;;;;;;17.87;59.00;99646.38;1722217;83;20112;-53
2022/06/05 07:30:04;;;;;;;;;;;;;;;17.91;59.32;99643.83;1722111;83;20148;-48
2022/06/05 07:32:32;;;;;;;;;;;;;;;18.00;59.51;99643.08;1723963;83;20148;-52
2022/06/05 07:34:57;;;;;;;;;;;;;;;18.07;58.98;99646.10;1723257;83;20406;-49
2022/06/05 07:37:23;;;;;;;;;;;;;;;18.13;59.08;99643.42;1723689;82;20130;-54
2022/06/05 07:39:48;;;;;;;;;;;;;;;18.11;54.95;99641.38;1722936;83;20129;-45
2022/06/05 07:42:14;;;;;;;;;;;;;;;18.16;56.69;99636.04;1723157;83;20101;-51
2022/06/05 07:44:40;;;;;;;;;;;;;;;18.25;56.43;99638.44;1722817;83;20096;-51
2022/06/05 07:47:09;;;;;;;;;;;;;;;18.27;55.18;99639.16;1723834;83;20185;-53
2022/06/05 07:49:39;;;;;;;;;;;;;;;18.39;56.89;99638.16;1721641;83;20109;-51
2022/06/05 07:54:50;;;;;;;;;;;;;;;18.53;54.99;99635.66;1724440;83;20204;-42
2022/06/05 07:57:18;;;;;;;;;;;;;;;18.58;54.44;99637.96;1724593;83;20441;-56
2022/06/05 07:59:46;;;;;;;;;;;;;;;18.69;54.28;99645.06;1723328;83;20439;-55
2022/06/05 08:02:15;;;;;;;;;;;;;;;18.77;52.77;99639.45;1723289;83;20121;-51
2022/06/05 08:04:42;;;;;;;;;;;;;;;18.90;54.71;99633.09;1724665;83;20708;-46
2022/06/05 08:07:08;;;;;;;;;;;;;;;19.05;54.62;99636.30;1724051;83;20149;-54
2022/06/05 08:09:34;;;;;;;;;;;;;;;19.15;53.87;99635.86;1722950;83;20121;-47
2022/06/05 08:12:00;;;;;;;;;;;;;;;19.12;51.54;99631.64;1724183;83;20129;-49
2022/06/05 08:14:27;;;;;;;;;;;;;;;19.23;52.93;99633.39;1723563;83;20113;-55
2022/06/05 08:16:53;;;;;;;;;;;;;;;19.33;52.36;99637.44;1723709;83;20178;-54
2022/06/05 08:19:21;;;;;;;;;;;;;;;19.42;52.20;99635.30;1724681;82;20102;-53
2022/06/05 08:21:47;;;;;;;;;;;;;;;19.59;53.67;99633.82;1723177;83;20101;-51
2022/06/05 08:24:12;;;;;;;;;;;;;;;19.73;51.98;99633.98;1722964;82;20105;-43
2022/06/05 08:26:38;;;;;;;;;;;;;;;19.88;51.75;99642.45;1722635;83;20153;-54
2022/06/05 08:29:05;;;;;;;;;;;;;;;20.07;51.36;99642.52;1722535;83;20433;-50
2022/06/05 08:31:32;;;;;;;;;;;;;;;20.26;51.86;99643.52;1722809;83;20156;-51
2022/06/05 08:33:58;;;;;;;;;;;;;;;20.41;51.86;99636.81;1721970;83;20448;-46
2022/06/05 08:36:25;;;;;;;;;;;;;;;20.57;50.88;99636.73;1721133;83;20995;-44
2022/06/05 08:41:53;;;;;;;;;;;;;;;20.96;48.48;99639.42;1721830;83;20143;-44
2022/06/05 08:44:25;;;;;;;;;;;;;;;21.17;47.10;99644.08;1722410;83;20441;-52
2022/06/05 08:46:55;;;;;;;;;;;;;;;21.27;45.91;99643.56;1721860;83;20133;-54
2022/06/05 08:49:42;;;;;;;;;;;;;;;21.32;45.95;99636.45;1721756;83;20484;-51
2022/06/05 08:52:27;;;;;;;;;;;;;;;21.43;47.44;99644.30;1720826;83;20132;-51
2022/06/05 08:55:19;;;;;;;;;;;;;;;21.63;48.29;99641.59;1716447;83;20216;-44
2022/06/05 08:57:51;;;;;;;;;;;;;;;21.82;46.44;99640.14;1702080;83;20139;-51
2022/06/05 09:00:21;;;;;;;;;;;;;;;22.09;46.92;99641.63;1722460;83;20172;-48
2022/06/05 09:02:56;;;;;;;;;;;;;;;22.10;42.17;99648.15;1720913;83;20136;-47
2022/06/05 09:05:27;;;;;;;;;;;;;;;22.19;42.97;99639.23;1724034;83;20129;-51
2022/06/05 09:07:56;;;;;;;;;;;;;;;22.22;41.84;99638.92;1723961;83;20120;-43
2022/06/05 09:10:25;;;;;;;;;;;;;;;22.46;41.28;99643.37;1722728;83;20405;-45
2022/06/05 09:12:54;;;;;;;;;;;;;;;22.56;41.59;99643.64;1722976;83;20141;-52
2022/06/05 09:15:29;;;;;;;;;;;;;;;22.64;41.86;99648.23;1721701;83;20108;-49
2022/06/05 09:18:00;;;;;;;;;;;;;;;22.78;41.99;99646.86;1719035;83;20121;-49
2022/06/05 09:20:35;;;;;;;;;;;;;;;23.02;42.69;99652.06;1724152;83;20450;-52
2022/06/05 09:23:03;;;;;;;;;;;;;;;23.40;42.00;99642.79;1720909;83;20186;-49
2022/06/05 09:25:43;;;;;;;;;;;;;;;23.77;38.82;99649.16;1722384;83;20141;-52
2022/06/05 09:28:15;;;;;;;;;;;;;;;23.86;39.32;99656.80;1721959;82;20113;-50
2022/06/05 09:30:51;;;;;;;;;;;;;;;23.73;37.75;99665.27;1717103;83;20418;-45
2022/06/05 09:33:27;;;;;;;;;;;;;;;24.10;38.20;99661.91;1723889;83;20536;-54
2022/06/05 09:36:05;;;;;;;;;;;;;;;24.42;36.10;99661.16;1723236;83;20113;-52
2022/06/05 09:38:43;;;;;;;;;;;;;;;24.83;35.20;99655.87;1723252;83;20409;-46
2022/06/05 09:41:30;;;;;;;;;;;;;;;25.54;38.36;99653.92;1723728;83;20109;-47
2022/06/05 09:44:05;;;;;;;;;;;;;;;25.87;36.25;99654.66;1722668;83;20138;-51
2022/06/05 09:46:58;;;;;;;;;;;;;;;26.53;35.52;99648.92;1723150;83;20100;-43
2022/06/05 09:49:40;;;;;;;;;;;;;;;27.06;32.79;99651.73;1720759;83;20128;-43
2022/06/05 09:52:12;;;;;;;;;;;;;;;27.15;32.26;99658.72;1724487;83;20116;-47
2022/06/05 09:54:41;;;;;;;;;;;;;;;27.34;31.24;99664.13;1722728;83;20190;-43
2022/06/05 10:00:03;;;;;;;;;;;;;;;28.35;30.96;99653.62;1723128;82;20224;-44
2022/06/05 10:02:29;;;;;;;;;;;;;;;28.63;28.94;99646.12;1716223;83;20109;-47
2022/06/05 10:04:55;;;;;;;;;;;;;;;28.75;27.94;99654.57;1722220;83;20168;-44
2022/06/05 10:07:37;;;;;;;;;;;;;;;28.81;28.42;99645.66;1720047;82;20109;-44
2022/06/05 10:10:09;;;;;;;;;;;;;;;29.40;26.82;99641.78;1722705;83;20109;-42
2022/06/05 10:12:41;;;;;;;;;;;;;;;29.54;26.39;99648.09;1721003;83;20394;-50
2022/06/05 10:15:26;;;;;;;;;;;;;;;29.44;25.47;99642.52;1724149;83;20101;-45
2022/06/05 10:17:58;;;;;;;;;;;;;;;30.21;27.90;99641.94;1724281;82;20622;-47
2022/06/05 10:20:30;;;;;;;;;;;;;;;29.99;26.66;99639.06;1722025;83;20421;-45
2022/06/05 10:23:02;;;;;;;;;;;;;;;29.75;25.65;99634.48;1723486;83;20399;-48
2022/06/05 10:25:34;;;;;;;;;;;;;;;29.88;26.62;99624.74;1722299;83;20112;-45
2022/06/05 10:28:06;;;;;;;;;;;;;;;30.75;26.07;99622.55;1722950;83;20413;-45
2022/06/05 10:30:53;;;;;;;;;;;;;;;31.10;24.38;99624.24;1723916;83;20116;-48
2022/06/05 10:33:38;;;;;;;;;;;;;;;30.08;26.17;99632.42;1723191;82;20137;-44
2022/06/05 10:36:16;;;;;;;;;;;;;;;30.00;26.95;99623.95;1723959;82;20175;-46
2022/06/05 10:39:03;;;;;;;;;;;;;;;30.38;26.08;99621.25;1723875;83;20117;-46
2022/06/05 10:41:59;;;;;;;;;;;;;;;30.40;25.82;99617.83;1722392;83;20453;-47
2022/06/05 10:44:57;;;;;;;;;;;;;;;30.81;25.58;99621.70;1677876;83;20155;-45
2022/06/05 10:47:53;;;;;;;;;;;;;;;31.27;24.20;99609.18;1721546;83;20116;-40
2022/06/05 10:50:40;;;;;;;;;;;;;;;31.42;24.54;99611.65;1724139;83;20402;-41
2022/06/05 10:53:25;;;;;;;;;;;;;;;31.86;24.99;99620.92;1722034;82;20096;-44
2022/06/05 10:56:30;;;;;;;;;;;;;;;32.00;24.71;99613.55;1710841;83;20106;-49
2022/06/05 10:59:16;;;;;;;;;;;;;;;31.78;23.06;99616.25;1724593;83;20418;-44
2022/06/05 11:01:57;;;;;;;;;;;;;;;31.61;24.32;99619.45;1724634;83;20113;-49
2022/06/05 11:04:30;;;;;;;;;;;;;;;30.86;23.08;99618.38;1722480;83;20137;-47
2022/06/05 11:07:17;;;;;;;;;;;;;;;31.67;22.95;99613.17;1722951;83;20141;-45
2022/06/05 11:10:04;;;;;;;;;;;;;;;31.71;22.77;99618.48;1724565;83;20101;-52
2022/06/05 11:15:41;;;;;;;;;;;;;;;31.54;21.15;99615.41;1705468;83;20114;-48
2022/06/05 11:18:17;;;;;;;;;;;;;;;32.18;21.91;99612.00;1700935;83;20140;-48
2022/06/05 11:20:47;;;;;;;;;;;;;;;32.86;20.71;99611.34;1699896;83;20115;-46
2022/06/05 11:23:19;;;;;;;;;;;;;;;33.00;20.55;99620.21;1706146;83;20102;-46
2022/06/05 11:25:59;;;;;;;;;;;;;;;33.36;20.50;99611.28;1713518;82;20133;-42
2022/06/05 11:28:37;;;;;;;;;;;;;;;33.22;19.55;99607.88;1707470;83;20135;-49
2022/06/05 11:31:12;;;;;;;;;;;;;;;33.73;19.90;99604.51;1708307;83;20422;-41
2022/06/05 11:34:05;;;;;;;;;;;;;;;32.43;20.02;99606.61;1715320;82;20180;-43
2022/06/05 11:36:40;;;;;;;;;;;;;;;32.56;19.90;99612.48;1711783;83;20504;-47
2022/06/05 11:39:26;;;;;;;;;;;;;;;32.33;19.91;99597.59;1710920;82;20432;-43
2022/06/05 11:42:04;;;;;;;;;;;;;;;32.69;19.64;99602.38;1715316;83;20540;-44
2022/06/05 11:44:36;;;;;;;;;;;;;;;32.37;19.76;99590.64;1713492;82;20149;-45
2022/06/05 11:47:05;;;;;;;;;;;;;;;32.19;20.22;99590.02;1706236;83;20110;-47
2022/06/05 11:49:52;;;;;;;;;;;;;;;32.01;21.06;99583.92;1712160;83;20113;-44
2022/06/05 11:52:41;;;;;;;;;;;;;;;32.95;19.36;99574.59;1712281;83;20458;-45
2022/06/05 11:55:13;;;;;;;;;;;;;;;32.98;19.81;99576.02;1710413;83;20175;-42
2022/06/05 11:57:51;;;;;;;;;;;;;;;32.80;19.71;99570.00;1710622;83;20118;-45
2022/06/05 12:00:23;;;;;;;;;;;;;;;33.25;20.00;99561.63;1702837;83;20134;-47
2022/06/05 12:03:25;;;;;;;;;;;;;;;31.71;19.73;99570.08;1710597;83;20430;-43
2022/06/05 12:06:04;;;;;;;;;;;;;;;32.39;20.40;99580.36;1707224;82;20120;-47
2022/06/05 12:08:33;;;;;;;;;;;;;;;32.41;19.78;99582.33;1711836;83;20161;-48
2022/06/05 12:11:02;;;;;;;;;;;;;;;32.69;19.66;99574.28;1713842;83;20117;-46
2022/06/05 12:13:50;;;;;;;;;;;;;;;32.73;20.89;99568.72;1707879;83;20512;-41
2022/06/05 12:16:32;;;;;;;;;;;;;;;32.36;19.26;99573.16;1707455;82;20414;-43
2022/06/05 12:19:01;;;;;;;;;;;;;;;31.75;20.43;99559.89;1707046;83;20151;-44
2022/06/05 12:21:30;;;;;;;;;;;;;;;31.61;20.76;99563.72;1708383;83;20107;-43
2022/06/05 12:24:02;;;;;;;;;;;;;;;31.61;20.41;99556.10;1710285;83;20105;-45
2022/06/05 12:26:35;;;;;;;;;;;;;;;31.29;20.36;99555.46;1698098;83;20494;-47
2022/06/05 12:29:07;;;;;;;;;;;;;;;30.78;20.81;99553.41;1713013;82;20460;-50
2022/06/05 12:31:40;;;;;;;;;;;;;;;30.61;20.66;99552.48;1706458;83;20143;-44
2022/06/05 12:34:12;;;;;;;;;;;;;;;29.76;20.85;99553.50;1710111;83;20119;-40
2022/06/05 12:36:47;;;;;;;;;;;;;;;29.17;21.01;99539.95;1712900;83;20138;-46
2022/06/05 12:39:26;;;;;;;;;;;;;;;28.84;20.90;99541.91;1704793;83;20221;-47
2022/06/05 12:42:20;;;;;;;;;;;;;;;28.28;21.09;99539.95;1708784;82;20149;-44
2022/06/05 12:44:49;;;;;;;;;;;;;;;28.15;21.05;99546.60;1709567;83;20116;-49
2022/06/05 12:47:50;;;;;;;;;;;;;;;27.74;21.49;99548.02;1711342;82;20115;-45
2022/06/05 12:50:19;;;;;;;;;;;;;;;27.68;22.11;99543.35;1710849;83;20134;-51
2022/06/05 12:53:00;;;;;;;;;;;;;;;27.75;22.15;99538.86;1704470;83;20131;-46
2022/06/05 12:55:33;;;;;;;;;;;;;;;27.68;22.46;99531.72;1702975;82;20143;-47
2022/06/05 12:58:16;;;;;;;;;;;;;;;27.79;20.84;99525.81;1709365;82;20117;-46
2022/06/05 13:01:07;;;;;;;;;;;;;;;27.85;20.92;99529.13;1703305;83;20463;-45
2022/06/05 13:03:51;;;;;;;;;;;;;;;27.54;21.79;99528.01;1704684;83;20213;-43
2022/06/05 13:06:55;;;;;;;;;;;;;;;27.45;21.00;99525.95;1702248;83;20131;-43
2022/06/05 13:09:44;;;;;;;;;;;;;;;27.51;21.44;99523.00;1706321;82;20110;-49
2022/06/05 13:12:25;;;;;;;;;;;;;;;27.57;20.46;99521.72;1707993;83;20409;-45
2022/06/05 13:15:00;;;;;;;;;;;;;;;27.50;21.45;99530.25;1712782;82;20540;-47
2022/06/05 13:17:45;;;;;;;;;;;;;;;27.38;20.89;99531.78;1701982;83;20428;-42
2022/06/05 13:20:24;;;;;;;;;;;;;;;27.31;21.67;99530.34;1712765;82;20378;-48
2022/06/05 13:23:02;;;;;;;;;;;;;;;27.25;20.84;99528.86;1706909;83;20111;-49
2022/06/05 13:25:44;;;;;;;;;;;;;;;27.19;21.11;99525.88;1677514;83;20110;-46
2022/06/05 13:28:16;;;;;;;;;;;;;;;26.96;19.88;99529.17;1711934;83;20122;-45
2022/06/05 13:30:45;;;;;;;;;;;;;;;27.02;20.94;99524.92;1711774;83;20102;-50
2022/06/05 13:33:32;;;;;;;;;;;;;;;26.80;19.90;99518.89;1709784;82;20113;-51